createdAt,value
2023-03-19T00:03:07.257Z,3.68
2023-03-19T00:06:35.036Z,3.55
2023-03-19T00:10:03.076Z,3.46
2023-03-19T00:13:30.920Z,3.38
2023-03-19T00:16:58.893Z,3.34
2023-03-19T00:20:08.609Z,3.30
2023-03-19T00:23:36.333Z,3.31
2023-03-19T00:27:04.308Z,3.26
2023-03-19T00:30:32.301Z,3.24
2023-03-19T00:34:00.213Z,3.27
2023-03-19T00:37:28.200Z,3.27
2023-03-19T00:40:56.351Z,3.29
2023-03-19T00:44:24.337Z,3.31
2023-03-19T00:47:52.047Z,3.28
2023-03-19T00:51:00.924Z,3.26
2023-03-19T00:54:29.204Z,3.23
2023-03-19T00:57:57.388Z,3.18
2023-03-19T01:01:25.344Z,3.15
2023-03-19T01:04:52.978Z,3.12
2023-03-19T01:08:20.908Z,3.10
2023-03-19T01:11:29.795Z,3.06
2023-03-19T01:14:37.752Z,3.04
2023-03-19T01:17:27.421Z,3.00
2023-03-19T01:20:55.298Z,2.99
2023-03-19T01:24:26.188Z,2.97
2023-03-19T01:27:54.213Z,2.96
2023-03-19T01:31:22.230Z,2.96
2023-03-19T01:35:01.931Z,2.97
2023-03-19T01:38:09.866Z,2.98
2023-03-19T01:41:37.663Z,3.01
2023-03-19T01:44:45.488Z,3.02
2023-03-19T01:48:25.655Z,2.99
2023-03-19T01:51:54.013Z,2.97
2023-03-19T01:55:24.774Z,2.94
2023-03-19T01:58:58.900Z,2.93
2023-03-19T02:02:26.688Z,2.92
2023-03-19T02:06:06.448Z,2.91
2023-03-19T02:09:34.470Z,2.93
2023-03-19T02:12:43.248Z,2.93
2023-03-19T02:16:11.185Z,2.95
2023-03-19T02:19:39.211Z,2.96
2023-03-19T02:23:07.197Z,2.98
2023-03-19T02:25:56.717Z,3.00
2023-03-19T02:29:05.653Z,3.02
2023-03-19T02:32:33.614Z,3.01
2023-03-19T02:36:01.556Z,3.01
2023-03-19T02:39:11.832Z,3.01
2023-03-19T02:42:39.776Z,3.04
2023-03-19T02:45:48.902Z,3.04
2023-03-19T02:49:17.052Z,3.05
2023-03-19T02:52:44.992Z,3.08
2023-03-19T02:56:12.943Z,3.08
2023-03-19T02:59:40.697Z,3.10
2023-03-19T03:02:48.734Z,3.12
2023-03-19T03:06:16.601Z,3.13
2023-03-19T03:09:44.826Z,3.15
2023-03-19T03:13:12.661Z,3.18
2023-03-19T03:16:40.663Z,3.20
2023-03-19T03:20:08.713Z,3.20
2023-03-19T03:23:17.101Z,3.23
2023-03-19T03:26:26.005Z,3.22
2023-03-19T03:29:53.942Z,3.23
2023-03-19T03:33:21.597Z,3.22
2023-03-19T03:36:49.733Z,3.22
2023-03-19T03:40:17.765Z,3.22
2023-03-19T03:43:46.581Z,3.20
2023-03-19T03:46:36.032Z,3.20
2023-03-19T03:50:04.014Z,3.17
2023-03-19T03:53:32.012Z,3.14
2023-03-19T03:56:39.987Z,3.12
2023-03-19T04:00:08.132Z,3.08
2023-03-19T04:03:36.120Z,3.06
2023-03-19T04:07:03.865Z,3.07
2023-03-19T04:10:35.119Z,3.07
2023-03-19T04:14:02.904Z,3.06
2023-03-19T04:17:11.290Z,3.03
2023-03-19T04:20:39.806Z,3.05
2023-03-19T04:23:48.013Z,3.05
2023-03-19T04:27:16.284Z,3.08
2023-03-19T04:30:44.363Z,3.12
2023-03-19T04:34:12.205Z,3.17
2023-03-19T04:37:21.357Z,3.22
2023-03-19T04:40:49.310Z,3.29
2023-03-19T04:44:17.376Z,3.35
2023-03-19T04:47:26.164Z,3.39
2023-03-19T04:50:54.110Z,3.43
2023-03-19T04:53:46.099Z,3.46
2023-03-19T04:57:14.420Z,3.50
2023-03-19T05:00:42.481Z,3.53
2023-03-19T05:04:09.165Z,3.54
2023-03-19T05:07:37.090Z,3.55
2023-03-19T05:11:05.032Z,3.55
2023-03-19T05:14:41.913Z,3.54
2023-03-19T05:18:08.654Z,3.54
2023-03-19T05:21:36.822Z,3.55
2023-03-19T05:25:04.772Z,3.54
2023-03-19T05:28:32.736Z,3.56
2023-03-19T05:32:00.762Z,3.57
2023-03-19T05:35:28.790Z,3.58
2023-03-19T05:38:59.721Z,3.62
2023-03-19T05:42:27.578Z,3.69
2023-03-19T05:45:55.333Z,3.77
2023-03-19T05:49:04.731Z,3.84
2023-03-19T05:51:33.494Z,3.89
2023-03-19T05:54:42.536Z,3.98
2023-03-19T05:58:13.579Z,4.05
2023-03-19T06:01:41.546Z,4.12
2023-03-19T06:05:09.564Z,4.17
2023-03-19T06:08:19.490Z,4.24
2023-03-19T06:11:33.213Z,4.31
2023-03-19T06:14:38.274Z,4.38
2023-03-19T06:18:06.105Z,4.46
2023-03-19T06:21:15.054Z,4.59
2023-03-19T06:24:42.988Z,4.73
2023-03-19T06:28:11.086Z,4.89
2023-03-19T06:31:38.855Z,5.05
2023-03-19T06:35:12.806Z,5.23
2023-03-19T06:38:40.652Z,5.39
2023-03-19T06:42:08.643Z,5.52
2023-03-19T06:45:17.189Z,5.63
2023-03-19T06:48:45.522Z,5.76
2023-03-19T06:51:53.566Z,5.86
2023-03-19T06:55:21.580Z,6.02
2023-03-19T06:58:49.624Z,6.16
2023-03-19T07:01:41.636Z,6.27
2023-03-19T07:04:50.694Z,6.40
2023-03-19T07:07:20.565Z,6.52
2023-03-19T07:10:48.713Z,6.68
2023-03-19T07:14:16.767Z,6.83
2023-03-19T07:17:25.805Z,6.97
2023-03-19T07:20:34.655Z,7.08
2023-03-19T07:24:02.691Z,7.28
2023-03-19T07:27:30.454Z,7.47
2023-03-19T07:30:58.521Z,7.62
2023-03-19T07:34:08.699Z,7.75
2023-03-19T07:36:56.885Z,7.85
2023-03-19T07:40:24.803Z,8.00
2023-03-19T07:43:52.819Z,8.13
2023-03-19T07:47:28.873Z,8.30
2023-03-19T07:50:48.770Z,8.46
2023-03-19T07:53:57.722Z,8.64
2023-03-19T07:57:05.687Z,8.83
2023-03-19T07:59:55.354Z,8.99
2023-03-19T08:03:23.291Z,9.18
2023-03-19T08:06:32.194Z,9.35
2023-03-19T08:09:40.742Z,9.53
2023-03-19T08:12:49.950Z,9.69
2023-03-19T08:16:17.934Z,9.84
2023-03-19T08:19:45.958Z,10.06
2023-03-19T08:23:14.062Z,10.28
2023-03-19T08:26:42.398Z,10.43
2023-03-19T08:29:31.474Z,10.59
2023-03-19T08:32:39.530Z,10.74
2023-03-19T08:35:08.355Z,10.84
2023-03-19T08:38:36.352Z,11.02
2023-03-19T08:41:45.715Z,11.18
2023-03-19T08:45:14.021Z,11.39
2023-03-19T08:48:42.048Z,11.59
2023-03-19T08:52:10.052Z,11.79
2023-03-19T08:54:59.636Z,11.96
2023-03-19T08:58:27.735Z,12.15
2023-03-19T09:01:56.222Z,12.30
2023-03-19T09:04:44.920Z,12.46
2023-03-19T09:08:12.926Z,12.64
2023-03-19T09:11:40.983Z,12.87
2023-03-19T09:14:50.167Z,13.02
2023-03-19T09:17:59.186Z,13.18
2023-03-19T09:21:27.203Z,13.20
2023-03-19T09:24:55.075Z,13.24
2023-03-19T09:28:23.061Z,13.40
2023-03-19T09:31:35.281Z,13.48
2023-03-19T09:35:03.379Z,13.60
2023-03-19T09:38:31.704Z,13.59
2023-03-19T09:41:05.506Z,13.52
2023-03-19T09:44:14.404Z,13.66
2023-03-19T09:47:42.590Z,13.82
2023-03-19T09:50:52.336Z,13.74
2023-03-19T09:54:02.042Z,13.94
2023-03-19T09:57:30.254Z,14.22
2023-03-19T10:00:00.047Z,14.27
2023-03-19T10:02:48.727Z,14.57
2023-03-19T10:05:33.109Z,14.72
2023-03-19T10:09:00.304Z,14.75
2023-03-19T10:12:10.474Z,14.99
2023-03-19T10:15:35.611Z,15.12
2023-03-19T10:18:40.898Z,15.13
2023-03-19T10:21:09.830Z,15.29
2023-03-19T10:23:37.823Z,15.24
2023-03-19T10:26:06.248Z,15.28
2023-03-19T10:28:55.137Z,15.46
2023-03-19T10:31:43.270Z,15.39
2023-03-19T10:34:32.397Z,15.74
2023-03-19T10:37:26.613Z,16.05
2023-03-19T10:40:54.871Z,16.30
2023-03-19T10:43:27.060Z,16.52
2023-03-19T10:46:17.080Z,16.72
2023-03-19T10:49:45.092Z,16.77
2023-03-19T10:53:13.432Z,16.93
2023-03-19T10:56:41.711Z,17.09
2023-03-19T10:59:52.002Z,17.19
2023-03-19T11:03:00.845Z,17.41
2023-03-19T11:06:28.788Z,17.52
2023-03-19T11:09:56.729Z,17.62
2023-03-19T11:13:24.834Z,17.77
2023-03-19T11:16:52.883Z,17.82
2023-03-19T11:20:01.142Z,17.84
2023-03-19T11:22:49.242Z,18.00
2023-03-19T11:25:20.434Z,18.05
2023-03-19T11:28:28.833Z,18.16
2023-03-19T11:31:57.403Z,18.06
2023-03-19T11:35:05.991Z,18.24
2023-03-19T11:38:15.873Z,18.55
2023-03-19T11:41:05.496Z,18.60
2023-03-19T11:44:33.540Z,18.39
2023-03-19T11:47:02.924Z,18.47
2023-03-19T11:49:32.031Z,18.65
2023-03-19T11:52:59.991Z,18.74
2023-03-19T11:55:49.510Z,18.71
2023-03-19T11:58:57.585Z,18.89
2023-03-19T12:02:25.616Z,19.05
2023-03-19T12:05:13.877Z,18.85
2023-03-19T12:08:23.632Z,18.79
2023-03-19T12:11:34.234Z,19.15
2023-03-19T12:14:42.291Z,19.23
2023-03-19T12:18:10.386Z,19.36
2023-03-19T12:21:38.382Z,19.35
2023-03-19T12:24:46.649Z,19.54
2023-03-19T12:27:55.190Z,19.86
2023-03-19T12:31:03.395Z,19.63
2023-03-19T12:33:47.690Z,19.54
2023-03-19T12:36:17.647Z,19.86
2023-03-19T12:39:47.951Z,20.09
2023-03-19T12:42:16.423Z,20.38
2023-03-19T12:44:48.722Z,20.25
2023-03-19T12:48:16.800Z,20.47
2023-03-19T12:51:05.459Z,20.26
2023-03-19T12:53:34.566Z,20.44
2023-03-19T12:56:04.233Z,20.50
2023-03-19T12:59:32.262Z,20.79
2023-03-19T13:02:02.617Z,20.55
2023-03-19T13:04:31.376Z,20.52
2023-03-19T13:07:00.155Z,20.67
2023-03-19T13:09:48.132Z,20.82
2023-03-19T13:12:38.307Z,20.81
2023-03-19T13:15:26.389Z,20.68
2023-03-19T13:17:54.947Z,20.61
2023-03-19T13:20:23.711Z,20.80
2023-03-19T13:22:55.465Z,20.57
2023-03-19T13:26:03.524Z,19.75
2023-03-19T13:28:53.572Z,19.74
2023-03-19T13:32:01.784Z,19.68
2023-03-19T13:34:50.428Z,19.53
2023-03-19T13:37:58.675Z,19.51
2023-03-19T13:40:27.121Z,19.52
2023-03-19T13:43:55.005Z,19.53
2023-03-19T13:46:24.076Z,20.05
2023-03-19T13:48:54.515Z,20.20
2023-03-19T13:52:17.790Z,20.59
2023-03-19T13:55:08.183Z,21.06
2023-03-19T13:57:38.789Z,21.19
2023-03-19T14:00:47.371Z,20.75
2023-03-19T14:03:54.368Z,20.37
2023-03-19T14:07:18.804Z,19.93
2023-03-19T14:10:27.520Z,19.91
2023-03-19T14:13:16.006Z,20.20
2023-03-19T14:16:44.329Z,20.71
2023-03-19T14:19:52.961Z,21.24
2023-03-19T14:23:01.836Z,21.53
2023-03-19T14:25:30.726Z,21.89
2023-03-19T14:28:39.979Z,22.58
2023-03-19T14:31:48.462Z,22.87
2023-03-19T14:34:58.309Z,23.15
2023-03-19T14:37:46.545Z,23.61
2023-03-19T14:40:34.959Z,23.93
2023-03-19T14:43:09.528Z,24.09
2023-03-19T14:45:57.713Z,24.25
2023-03-19T14:48:26.959Z,24.00
2023-03-19T14:51:23.228Z,24.43
2023-03-19T14:53:57.451Z,24.47
2023-03-19T14:56:47.182Z,24.61
2023-03-19T14:59:17.401Z,24.77
2023-03-19T15:01:45.687Z,24.83
2023-03-19T15:04:14.014Z,25.08
2023-03-19T15:07:22.175Z,25.21
2023-03-19T15:10:32.202Z,25.41
2023-03-19T15:13:16.205Z,25.52
2023-03-19T15:16:28.327Z,25.87
2023-03-19T15:19:14.065Z,25.65
2023-03-19T15:21:48.689Z,25.52
2023-03-19T15:24:18.600Z,25.50
2023-03-19T15:27:47.079Z,25.39
2023-03-19T15:31:14.481Z,25.51
2023-03-19T15:33:53.403Z,25.52
2023-03-19T15:36:49.400Z,25.25
2023-03-19T15:39:37.978Z,24.69
2023-03-19T15:42:47.187Z,23.91
2023-03-19T15:45:56.439Z,23.57
2023-03-19T15:49:06.059Z,23.96
2023-03-19T15:52:22.248Z,23.58
2023-03-19T15:55:08.161Z,23.35
2023-03-19T15:58:20.416Z,23.21
2023-03-19T16:01:44.240Z,22.73
2023-03-19T16:05:21.801Z,22.52
2023-03-19T16:08:40.416Z,22.17
2023-03-19T16:11:34.304Z,21.83
2023-03-19T16:14:46.137Z,21.70
2023-03-19T16:17:37.256Z,21.19
2023-03-19T16:20:25.589Z,20.95
2023-03-19T16:23:00.346Z,20.75
2023-03-19T16:26:05.189Z,20.41
2023-03-19T16:29:14.378Z,19.94
2023-03-19T16:32:23.904Z,19.45
2023-03-19T16:35:14.544Z,19.18
2023-03-19T16:38:21.778Z,18.91
2023-03-19T16:41:31.683Z,18.63
2023-03-19T16:44:43.990Z,18.29
2023-03-19T16:47:43.987Z,17.99
2023-03-19T16:50:54.042Z,17.67
2023-03-19T16:54:04.033Z,17.38
2023-03-19T16:56:59.920Z,17.17
2023-03-19T17:00:00.826Z,16.96
2023-03-19T17:03:28.823Z,16.70
2023-03-19T17:06:37.074Z,16.51
2023-03-19T17:10:05.515Z,16.34
2023-03-19T17:13:13.756Z,16.19
2023-03-19T17:16:42.575Z,16.01
2023-03-19T17:19:59.196Z,15.89
2023-03-19T17:23:08.797Z,15.75
2023-03-19T17:26:36.838Z,15.57
2023-03-19T17:30:01.210Z,15.43
2023-03-19T17:32:54.293Z,15.33
2023-03-19T17:36:04.732Z,15.21
2023-03-19T17:39:14.078Z,15.09
2023-03-19T17:42:42.355Z,14.97
2023-03-19T17:46:05.780Z,14.87
2023-03-19T17:49:33.937Z,14.77
2023-03-19T17:53:01.990Z,14.66
2023-03-19T17:56:30.359Z,14.55
2023-03-19T17:59:34.157Z,14.44
2023-03-19T18:03:02.453Z,14.34
2023-03-19T18:06:30.724Z,14.29
2023-03-19T18:09:59.170Z,14.19
2023-03-19T18:12:28.473Z,14.08
2023-03-19T18:15:17.474Z,14.03
2023-03-19T18:18:45.529Z,13.99
2023-03-19T18:22:13.798Z,13.93
2023-03-19T18:25:42.267Z,13.89
2023-03-19T18:29:10.402Z,13.82
2023-03-19T18:32:18.705Z,13.74
2023-03-19T18:35:47.172Z,13.65
2023-03-19T18:39:17.915Z,13.60
2023-03-19T18:42:26.952Z,13.55
2023-03-19T18:45:43.343Z,13.49
2023-03-19T18:49:11.239Z,13.41
2023-03-19T18:52:28.307Z,13.33
2023-03-19T18:55:56.205Z,13.23
2023-03-19T18:59:24.231Z,13.14
2023-03-19T19:02:52.392Z,13.06
2023-03-19T19:06:21.294Z,12.95
2023-03-19T19:09:45.207Z,12.86
2023-03-19T19:12:53.699Z,12.84
2023-03-19T19:16:02.841Z,12.80
2023-03-19T19:19:30.882Z,12.75
2023-03-19T19:22:58.761Z,12.73
2023-03-19T19:26:26.787Z,12.69
2023-03-19T19:29:55.018Z,12.64
2023-03-19T19:33:24.386Z,12.58
2023-03-19T19:36:53.112Z,12.52
2023-03-19T19:40:21.374Z,12.45
2023-03-19T19:43:49.365Z,12.31
2023-03-19T19:47:17.680Z,12.16
2023-03-19T19:50:45.813Z,12.09
2023-03-19T19:54:13.882Z,12.05
2023-03-19T19:57:42.083Z,12.03
2023-03-19T20:01:10.371Z,11.99
2023-03-19T20:04:18.665Z,11.96
2023-03-19T20:07:46.816Z,11.92
2023-03-19T20:11:15.198Z,11.90
2023-03-19T20:14:43.562Z,11.85
2023-03-19T20:18:11.541Z,11.81
2023-03-19T20:21:40.257Z,11.74
2023-03-19T20:25:08.412Z,11.69
2023-03-19T20:28:36.919Z,11.63
2023-03-19T20:31:29.338Z,11.57
2023-03-19T20:34:57.357Z,11.52
2023-03-19T20:38:25.403Z,11.45
2023-03-19T20:41:53.819Z,11.38
2023-03-19T20:45:02.378Z,11.33
2023-03-19T20:48:30.630Z,11.27
2023-03-19T20:51:58.971Z,11.20
2023-03-19T20:55:27.118Z,11.17
2023-03-19T20:58:55.790Z,11.13
2023-03-19T21:02:23.943Z,11.10
2023-03-19T21:05:51.945Z,11.06
2023-03-19T21:09:20.095Z,11.08
2023-03-19T21:12:48.355Z,11.07
2023-03-19T21:15:39.415Z,11.07
2023-03-19T21:19:07.489Z,11.03
2023-03-19T21:22:35.477Z,10.99
2023-03-19T21:25:51.396Z,10.93
2023-03-19T21:29:19.355Z,10.90
2023-03-19T21:32:47.527Z,10.86
2023-03-19T21:36:15.624Z,10.83
2023-03-19T21:39:43.680Z,10.81
2023-03-19T21:43:11.634Z,10.78
2023-03-19T21:46:40.600Z,10.80
2023-03-19T21:50:08.549Z,10.81
2023-03-19T21:53:36.639Z,10.83
2023-03-19T21:57:04.714Z,10.85
2023-03-19T22:00:32.793Z,10.85
2023-03-19T22:03:56.867Z,10.84
2023-03-19T22:07:24.846Z,10.83
2023-03-19T22:10:33.374Z,10.82
2023-03-19T22:14:01.340Z,10.80
2023-03-19T22:17:29.467Z,10.75
2023-03-19T22:20:39.632Z,10.70
2023-03-19T22:24:07.509Z,10.68
2023-03-19T22:27:36.030Z,10.61
2023-03-19T22:31:04.102Z,10.52
2023-03-19T22:34:32.293Z,10.40
2023-03-19T22:38:00.298Z,10.37
2023-03-19T22:41:10.391Z,10.32
2023-03-19T22:44:38.918Z,10.30
2023-03-19T22:47:27.872Z,10.25
2023-03-19T22:50:44.535Z,10.24
2023-03-19T22:54:12.511Z,10.20
2023-03-19T22:57:36.734Z,10.17
2023-03-19T23:01:04.873Z,10.13
2023-03-19T23:04:02.853Z,10.08
2023-03-19T23:07:30.777Z,10.05
2023-03-19T23:10:59.127Z,9.94
2023-03-19T23:14:30.262Z,9.83
2023-03-19T23:17:55.595Z,9.69
2023-03-19T23:21:24.103Z,9.58
2023-03-19T23:24:36.088Z,9.46
2023-03-19T23:28:04.143Z,9.41
2023-03-19T23:31:32.325Z,9.38
2023-03-19T23:35:01.858Z,9.37
2023-03-19T23:38:29.536Z,9.35
2023-03-19T23:41:57.723Z,9.31
2023-03-19T23:45:25.736Z,9.29
2023-03-19T23:48:53.780Z,9.30
2023-03-19T23:52:21.811Z,9.29
2023-03-19T23:55:49.724Z,9.32
2023-03-19T23:59:17.953Z,9.35
